Time;durP1;ratioP1;P1;durP2;ratioP2;P2;SDS_P1;SDS_P2;PMS_P1;PMS_P2;Temp;Humidity;BMP_temperature;BMP_pressure;BME280_temperature;BME280_humidity;BME280_pressure;Samples;Min_cycle;Max_cycle;Signal;HPM_P1;HPM_P2
2023/01/28 00:00:11;;;;;;;0.10;0.10;;;;;;;;;;7380612;19;20607;-68
2023/01/28 00:02:40;;;;;;;0.10;0.10;;;;;;;;;;7380853;19;20607;-68
2023/01/28 00:05:09;;;;;;;0.10;0.10;;;;;;;;;;7380656;19;20854;-68
2023/01/28 00:07:39;;;;;;;0.10;0.10;;;;;;;;;;7380253;19;20733;-67
2023/01/28 00:10:08;;;;;;;0.10;0.10;;;;;;;;;;7379128;19;20718;-68
2023/01/28 00:12:40;;;;;;;0.10;0.10;;;;;;;;;;7381085;19;20639;-68
2023/01/28 00:15:09;;;;;;;0.10;0.10;;;;;;;;;;7382250;19;20730;-70
2023/01/28 00:17:38;;;;;;;0.10;0.10;;;;;;;;;;7382419;19;20615;-68
2023/01/28 00:20:08;;;;;;;0.10;0.10;;;;;;;;;;7381030;19;20694;-68
2023/01/28 00:22:37;;;;;;;0.10;0.10;;;;;;;;;;7382540;19;20603;-68
2023/01/28 00:25:06;;;;;;;0.10;0.10;;;;;;;;;;7382856;19;20611;-68
2023/01/28 00:27:35;;;;;;;0.10;0.10;;;;;;;;;;7377852;19;20615;-68
2023/01/28 00:30:06;;;;;;;0.17;0.17;;;;;;;;;;7381691;19;20619;-68
2023/01/28 00:32:38;;;;;;;0.10;0.10;;;;;;;;;;7379922;19;20672;-68
2023/01/28 00:35:07;;;;;;;0.10;0.10;;;;;;;;;;7380078;19;20741;-68
2023/01/28 00:37:36;;;;;;;0.10;0.10;;;;;;;;;;7379572;19;20673;-68
2023/01/28 00:40:05;;;;;;;0.10;0.10;;;;;;;;;;7381092;19;20844;-68
2023/01/28 00:42:34;;;;;;;0.10;0.10;;;;;;;;;;7378861;19;20756;-68
2023/01/28 00:45:03;;;;;;;0.10;0.10;;;;;;;;;;7381586;19;20596;-68
2023/01/28 00:47:35;;;;;;;0.10;0.10;;;;;;;;;;7376528;19;20745;-68
2023/01/28 00:50:04;;;;;;;0.10;0.10;;;;;;;;;;7378609;19;20688;-68
2023/01/28 00:52:33;;;;;;;0.10;0.10;;;;;;;;;;7379314;19;20670;-68
2023/01/28 00:55:02;;;;;;;0.10;0.10;;;;;;;;;;7381459;19;20606;-68
2023/01/28 00:57:31;;;;;;;0.10;0.10;;;;;;;;;;7378042;19;20639;-68
2023/01/28 01:00:00;;;;;;;0.10;0.10;;;;;;;;;;7376605;19;20659;-68
2023/01/28 01:02:30;;;;;;;0.10;0.10;;;;;;;;;;7379899;19;20743;-68
2023/01/28 01:05:02;;;;;;;0.10;0.10;;;;;;;;;;7380607;19;20647;-68
2023/01/28 01:07:40;;;;;;;0.10;0.10;;;;;;;;;;7380451;19;20649;-68
2023/01/28 01:10:09;;;;;;;0.10;0.10;;;;;;;;;;7379091;19;20704;-68
2023/01/28 01:12:39;;;;;;;0.10;0.10;;;;;;;;;;7379303;19;20618;-68
2023/01/28 01:15:09;;;;;;;0.10;0.10;;;;;;;;;;7380422;19;20658;-68
2023/01/28 01:17:39;;;;;;;0.10;0.10;;;;;;;;;;7381860;19;20653;-68
2023/01/28 01:20:14;;;;;;;0.10;0.10;;;;;;;;;;7379487;19;20714;-68
2023/01/28 01:22:43;;;;;;;0.10;0.10;;;;;;;;;;7378913;19;20626;-67
2023/01/28 01:25:12;;;;;;;0.10;0.10;;;;;;;;;;7378974;19;20698;-67
2023/01/28 01:27:44;;;;;;;0.10;0.10;;;;;;;;;;7377390;19;20619;-68
2023/01/28 01:30:14;;;;;;;0.10;0.10;;;;;;;;;;7377833;19;20700;-68
2023/01/28 01:32:43;;;;;;;0.10;0.10;;;;;;;;;;7379003;19;20150;-68
2023/01/28 01:35:15;;;;;;;0.10;0.10;;;;;;;;;;7378941;19;20654;-68
2023/01/28 01:37:46;;;;;;;0.10;0.10;;;;;;;;;;7377592;19;20631;-69
2023/01/28 01:40:15;;;;;;;0.10;0.10;;;;;;;;;;7376450;19;20663;-67
2023/01/28 01:42:45;;;;;;;0.10;0.10;;;;;;;;;;7377213;19;20643;-67
2023/01/28 01:45:16;;;;;;;0.10;0.10;;;;;;;;;;7378439;19;20610;-67
2023/01/28 01:47:47;;;;;;;0.10;0.10;;;;;;;;;;7376701;19;20611;-68
2023/01/28 01:50:24;;;;;;;0.10;0.10;;;;;;;;;;7373071;19;20663;-69
2023/01/28 01:52:55;;;;;;;0.10;0.10;;;;;;;;;;7377985;19;20685;-68
2023/01/28 01:55:26;;;;;;;0.10;0.10;;;;;;;;;;7377113;19;20615;-68
2023/01/28 01:57:57;;;;;;;0.10;0.10;;;;;;;;;;7376432;19;20737;-68
2023/01/28 02:00:26;;;;;;;0.10;0.10;;;;;;;;;;7373406;19;20717;-68
2023/01/28 02:02:55;;;;;;;0.10;0.10;;;;;;;;;;7378571;19;20619;-68
2023/01/28 02:05:27;;;;;;;0.10;0.10;;;;;;;;;;7376102;19;20660;-68
2023/01/28 02:08:19;;;;;;;0.10;0.10;;;;;;;;;;7377703;19;20623;-69
2023/01/28 02:10:47;;;;;;;0.10;0.10;;;;;;;;;;7380180;19;20655;-68
2023/01/28 02:13:17;;;;;;;0.10;0.10;;;;;;;;;;7384872;19;20638;-68
2023/01/28 02:15:47;;;;;;;0.10;0.10;;;;;;;;;;7382993;19;20634;-68
2023/01/28 02:18:15;;;;;;;0.10;0.10;;;;;;;;;;7386413;19;20652;-68
2023/01/28 02:20:55;;;;;;;0.10;0.10;;;;;;;;;;7381147;19;20623;-68
2023/01/28 02:23:35;;;;;;;0.10;0.10;;;;;;;;;;7385473;19;20641;-68
2023/01/28 02:26:18;;;;;;;0.10;0.10;;;;;;;;;;7383780;19;20702;-68
2023/01/28 02:28:53;;;;;;;0.10;0.10;;;;;;;;;;7384722;19;20141;-68
2023/01/28 02:31:23;;;;;;;0.10;0.10;;;;;;;;;;7383525;19;20152;-68
2023/01/28 02:33:55;;;;;;;0.10;0.10;;;;;;;;;;7382842;19;20172;-69
2023/01/28 02:36:30;;;;;;;0.10;0.10;;;;;;;;;;7383483;19;20635;-68
2023/01/28 02:39:01;;;;;;;0.10;0.10;;;;;;;;;;7382340;19;20724;-68
2023/01/28 02:41:33;;;;;;;0.10;0.10;;;;;;;;;;7383401;19;20599;-68
2023/01/28 02:44:05;;;;;;;0.10;0.10;;;;;;;;;;7383247;19;20630;-68
2023/01/28 02:49:36;;;;;;;0.10;0.10;;;;;;;;;;7380474;19;20164;-68
2023/01/28 02:52:16;;;;;;;0.10;0.10;;;;;;;;;;7385404;19;20148;-69
2023/01/28 02:54:46;;;;;;;0.10;0.10;;;;;;;;;;7383958;19;20627;-68
2023/01/28 02:57:21;;;;;;;0.10;0.10;;;;;;;;;;7383964;19;20141;-68
2023/01/28 02:59:57;;;;;;;0.10;0.10;;;;;;;;;;7380142;19;20734;-68
2023/01/28 03:02:30;;;;;;;0.10;0.10;;;;;;;;;;7383677;19;20714;-68
2023/01/28 03:05:02;;;;;;;0.10;0.10;;;;;;;;;;7382983;19;20610;-68
2023/01/28 03:07:32;;;;;;;0.10;0.10;;;;;;;;;;7381933;19;20642;-68
2023/01/28 03:10:03;;;;;;;0.10;0.10;;;;;;;;;;7380829;19;20708;-68
2023/01/28 03:37:05;;;;;;;0.10;0.10;;;;;;;;;;7381399;19;20155;-68
2023/01/28 03:39:49;;;;;;;0.10;0.10;;;;;;;;;;7379704;19;20658;-68
2023/01/28 03:42:19;;;;;;;0.10;0.10;;;;;;;;;;7381100;19;20618;-70
2023/01/28 03:45:00;;;;;;;0.10;0.10;;;;;;;;;;7384102;19;20136;-68
2023/01/28 03:47:33;;;;;;;0.10;0.10;;;;;;;;;;7380746;19;20208;-68
2023/01/28 03:50:05;;;;;;;0.20;0.20;;;;;;;;;;7378920;19;20661;-68
2023/01/28 03:52:40;;;;;;;0.10;0.10;;;;;;;;;;7379820;19;20160;-68
2023/01/28 03:55:29;;;;;;;0.10;0.10;;;;;;;;;;7380546;19;20164;-68
2023/01/28 03:57:58;;;;;;;0.20;0.20;;;;;;;;;;7381078;19;20157;-68
2023/01/28 04:00:28;;;;;;;0.10;0.10;;;;;;;;;;7377216;19;20262;-68
2023/01/28 04:03:00;;;;;;;0.10;0.10;;;;;;;;;;7381766;19;20690;-69
2023/01/28 04:05:30;;;;;;;0.20;0.20;;;;;;;;;;7379411;19;20634;-68
2023/01/28 04:08:01;;;;;;;0.10;0.10;;;;;;;;;;7379799;19;20174;-68
2023/01/28 04:10:50;;;;;;;0.10;0.10;;;;;;;;;;7376249;19;20545;-68
2023/01/28 04:13:28;;;;;;;0.10;0.10;;;;;;;;;;7380361;19;20630;-68
2023/01/28 04:15:57;;;;;;;0.10;0.10;;;;;;;;;;7379122;19;20153;-68
2023/01/28 04:18:29;;;;;;;0.10;0.10;;;;;;;;;;7379917;19;20624;-68
2023/01/28 04:21:00;;;;;;;0.20;0.20;;;;;;;;;;7378281;19;20206;-68
2023/01/28 04:23:29;;;;;;;0.10;0.10;;;;;;;;;;7379603;19;20634;-69
2023/01/28 04:25:59;;;;;;;0.10;0.10;;;;;;;;;;7381802;19;20171;-68
2023/01/28 04:28:28;;;;;;;0.10;0.10;;;;;;;;;;7377660;19;20153;-68
2023/01/28 04:30:56;;;;;;;0.10;0.10;;;;;;;;;;7378514;19;20180;-68
2023/01/28 04:33:58;;;;;;;0.10;0.10;;;;;;;;;;7376815;19;20626;-68
2023/01/28 04:36:47;;;;;;;0.10;0.10;;;;;;;;;;7380928;19;20153;-68
2023/01/28 04:39:34;;;;;;;0.10;0.10;;;;;;;;;;7377611;19;20188;-69
2023/01/28 04:42:18;;;;;;;0.10;0.10;;;;;;;;;;7379162;19;20179;-68
2023/01/28 04:45:26;;;;;;;0.10;0.10;;;;;;;;;;7378547;19;20165;-69
2023/01/28 04:48:23;;;;;;;0.10;0.10;;;;;;;;;;7379302;19;20140;-68
2023/01/28 04:51:13;;;;;;;0.10;0.10;;;;;;;;;;7379996;19;20665;-69
2023/01/28 04:53:59;;;;;;;0.10;0.10;;;;;;;;;;7377617;19;20216;-69
2023/01/28 04:56:38;;;;;;;0.10;0.10;;;;;;;;;;7378304;19;20801;-68
2023/01/28 04:59:07;;;;;;;0.10;0.10;;;;;;;;;;7378319;19;20198;-68
2023/01/28 05:01:37;;;;;;;0.10;0.10;;;;;;;;;;7379430;19;20180;-69
2023/01/28 05:04:08;;;;;;;0.10;0.10;;;;;;;;;;7379002;19;20674;-68
2023/01/28 05:06:42;;;;;;;0.10;0.10;;;;;;;;;;7377902;19;20607;-68
2023/01/28 05:09:17;;;;;;;0.10;0.10;;;;;;;;;;7376823;19;20188;-69
2023/01/28 05:11:46;;;;;;;0.10;0.10;;;;;;;;;;7377907;19;20148;-69
2023/01/28 05:14:17;;;;;;;0.17;0.17;;;;;;;;;;7378892;19;20619;-69
2023/01/28 05:16:50;;;;;;;0.10;0.10;;;;;;;;;;7378086;19;20756;-69
2023/01/28 05:19:20;;;;;;;0.10;0.10;;;;;;;;;;7377145;19;21063;-69
2023/01/28 05:21:52;;;;;;;0.10;0.10;;;;;;;;;;7377292;19;20216;-69
2023/01/28 05:24:28;;;;;;;0.10;0.10;;;;;;;;;;7377033;19;20152;-68
2023/01/28 05:26:57;;;;;;;0.10;0.10;;;;;;;;;;7377035;19;20665;-71
2023/01/28 05:29:26;;;;;;;0.10;0.10;;;;;;;;;;7374009;19;20184;-68
2023/01/28 05:31:55;;;;;;;0.10;0.10;;;;;;;;;;7375867;19;20627;-69
2023/01/28 05:34:24;;;;;;;0.10;0.10;;;;;;;;;;7377023;19;20137;-69
2023/01/28 05:36:56;;;;;;;0.10;0.10;;;;;;;;;;7375777;19;20693;-69
2023/01/28 05:39:32;;;;;;;0.10;0.10;;;;;;;;;;7374720;19;20662;-69
2023/01/28 05:42:01;;;;;;;0.10;0.10;;;;;;;;;;7377601;19;20639;-69
2023/01/28 05:44:35;;;;;;;0.10;0.10;;;;;;;;;;7376740;19;20653;-67
2023/01/28 05:47:22;;;;;;;0.13;0.13;;;;;;;;;;7385929;19;20634;-69
2023/01/28 05:49:51;;;;;;;0.10;0.10;;;;;;;;;;7384213;19;20657;-68
2023/01/28 05:52:38;;;;;;;0.15;0.15;;;;;;;;;;7385162;19;20635;-68
2023/01/28 05:55:10;;;;;;;0.10;0.10;;;;;;;;;;7384235;19;20151;-69
2023/01/28 05:57:39;;;;;;;0.13;0.13;;;;;;;;;;7384675;19;20615;-69
2023/01/28 06:00:10;;;;;;;0.10;0.10;;;;;;;;;;7381775;19;20663;-69
2023/01/28 06:02:45;;;;;;;0.10;0.10;;;;;;;;;;7385727;19;20591;-68
2023/01/28 06:05:17;;;;;;;0.10;0.10;;;;;;;;;;7382531;19;20192;-68
2023/01/28 06:07:49;;;;;;;0.10;0.10;;;;;;;;;;7383433;19;21290;-69
2023/01/28 06:10:19;;;;;;;0.10;0.10;;;;;;;;;;7382339;19;20208;-68
2023/01/28 06:12:49;;;;;;;0.10;0.10;;;;;;;;;;7383540;19;20622;-69
2023/01/28 06:15:32;;;;;;;0.10;0.10;;;;;;;;;;7385866;19;20602;-68
2023/01/28 06:18:18;;;;;;;0.10;0.10;;;;;;;;;;7383942;19;20153;-69
2023/01/28 06:20:47;;;;;;;0.15;0.15;;;;;;;;;;7381998;19;20650;-68
2023/01/28 06:23:20;;;;;;;0.10;0.10;;;;;;;;;;7384323;19;20156;-68
2023/01/28 06:25:49;;;;;;;0.10;0.10;;;;;;;;;;7384274;19;20622;-69
2023/01/28 06:28:18;;;;;;;0.10;0.10;;;;;;;;;;7382222;19;20635;-69
2023/01/28 06:30:50;;;;;;;0.10;0.10;;;;;;;;;;7381616;19;20646;-69
2023/01/28 06:33:20;;;;;;;0.10;0.10;;;;;;;;;;7384977;19;20137;-69
2023/01/28 06:35:49;;;;;;;0.10;0.10;;;;;;;;;;7383351;19;20757;-69
2023/01/28 06:38:20;;;;;;;0.10;0.10;;;;;;;;;;7385084;19;20145;-68
2023/01/28 06:40:54;;;;;;;0.10;0.10;;;;;;;;;;7382213;19;20153;-69
2023/01/28 06:43:26;;;;;;;0.10;0.10;;;;;;;;;;7385416;19;20144;-68
2023/01/28 06:45:55;;;;;;;0.10;0.10;;;;;;;;;;7383103;19;20152;-68
2023/01/28 06:48:24;;;;;;;0.10;0.10;;;;;;;;;;7383600;19;20683;-69
2023/01/28 06:50:53;;;;;;;0.10;0.10;;;;;;;;;;7381589;19;20680;-68
2023/01/28 06:53:25;;;;;;;0.10;0.10;;;;;;;;;;7384597;19;20599;-68
2023/01/28 06:55:53;;;;;;;0.10;0.10;;;;;;;;;;7380922;19;20153;-68
2023/01/28 06:58:22;;;;;;;0.10;0.10;;;;;;;;;;7381817;19;20622;-68
2023/01/28 07:00:51;;;;;;;0.10;0.10;;;;;;;;;;7381541;19;20686;-69
2023/01/28 07:03:20;;;;;;;0.10;0.10;;;;;;;;;;7383152;19;20725;-69
2023/01/28 07:05:49;;;;;;;0.20;0.20;;;;;;;;;;7381431;19;20157;-69
2023/01/28 07:08:18;;;;;;;0.10;0.10;;;;;;;;;;7383605;19;20653;-69
2023/01/28 07:10:50;;;;;;;0.10;0.10;;;;;;;;;;7379796;19;20754;-70
2023/01/28 07:13:19;;;;;;;0.10;0.10;;;;;;;;;;7381893;19;20638;-70
2023/01/28 07:15:49;;;;;;;0.10;0.10;;;;;;;;;;7381065;19;20631;-70
2023/01/28 07:18:18;;;;;;;0.10;0.10;;;;;;;;;;7381680;19;20767;-70
2023/01/28 07:20:47;;;;;;;0.10;0.10;;;;;;;;;;7380896;19;20741;-70
2023/01/28 07:23:16;;;;;;;0.10;0.10;;;;;;;;;;7380959;19;20149;-70
2023/01/28 07:25:45;;;;;;;0.10;0.10;;;;;;;;;;7382712;19;20603;-70
2023/01/28 07:28:20;;;;;;;0.10;0.10;;;;;;;;;;7382347;19;20665;-70
2023/01/28 07:30:49;;;;;;;0.20;0.20;;;;;;;;;;7379523;19;20180;-70
2023/01/28 07:33:19;;;;;;;0.10;0.10;;;;;;;;;;7382250;19;20602;-70
2023/01/28 07:35:48;;;;;;;0.10;0.10;;;;;;;;;;7382405;19;20641;-71
2023/01/28 07:38:17;;;;;;;0.10;0.10;;;;;;;;;;7380793;19;20611;-70
2023/01/28 07:40:46;;;;;;;0.10;0.10;;;;;;;;;;7378142;19;20646;-70
2023/01/28 07:43:18;;;;;;;0.10;0.10;;;;;;;;;;7383581;19;20632;-70
2023/01/28 07:45:48;;;;;;;0.10;0.10;;;;;;;;;;7379829;19;20622;-70
2023/01/28 07:48:17;;;;;;;0.10;0.10;;;;;;;;;;7382826;19;20615;-70
2023/01/28 07:50:47;;;;;;;0.10;0.10;;;;;;;;;;7380075;19;20631;-70
2023/01/28 07:53:17;;;;;;;0.10;0.10;;;;;;;;;;7382739;19;20599;-68
2023/01/28 07:55:46;;;;;;;0.10;0.10;;;;;;;;;;7381768;19;20626;-67
2023/01/28 07:58:17;;;;;;;0.10;0.10;;;;;;;;;;7383148;19;20655;-69
2023/01/28 08:00:46;;;;;;;0.20;0.20;;;;;;;;;;7378475;19;20813;-69
2023/01/28 08:03:16;;;;;;;0.10;0.10;;;;;;;;;;7382577;19;20726;-68
2023/01/28 08:05:47;;;;;;;0.10;0.10;;;;;;;;;;7380278;19;20788;-68
2023/01/28 08:08:16;;;;;;;0.10;0.10;;;;;;;;;;7380673;19;20595;-68
2023/01/28 08:10:46;;;;;;;0.10;0.10;;;;;;;;;;7373757;19;20708;-68
2023/01/28 08:13:18;;;;;;;0.10;0.10;;;;;;;;;;7375110;19;20611;-68
2023/01/28 08:15:47;;;;;;;0.10;0.10;;;;;;;;;;7379601;19;20728;-68
2023/01/28 08:18:17;;;;;;;0.10;0.10;;;;;;;;;;7378930;19;20646;-68
2023/01/28 08:20:47;;;;;;;0.10;0.10;;;;;;;;;;7377952;19;20701;-68
2023/01/28 08:23:16;;;;;;;0.10;0.10;;;;;;;;;;7381147;19;20674;-68
2023/01/28 08:25:46;;;;;;;0.10;0.10;;;;;;;;;;7380112;19;20626;-68
2023/01/28 08:28:18;;;;;;;0.10;0.10;;;;;;;;;;7379867;19;20626;-68
2023/01/28 08:30:47;;;;;;;0.10;0.10;;;;;;;;;;7382066;19;20735;-69
2023/01/28 08:33:19;;;;;;;0.10;0.10;;;;;;;;;;7381015;19;20784;-68
2023/01/28 08:35:49;;;;;;;0.10;0.10;;;;;;;;;;7380774;19;20612;-68
2023/01/28 08:38:19;;;;;;;0.10;0.10;;;;;;;;;;7380900;19;20677;-68
2023/01/28 08:40:49;;;;;;;0.10;0.10;;;;;;;;;;7376250;19;20659;-69
2023/01/28 08:43:20;;;;;;;0.10;0.10;;;;;;;;;;7379423;19;20683;-70
2023/01/28 08:45:49;;;;;;;0.10;0.10;;;;;;;;;;7378902;19;20610;-68
2023/01/28 08:48:19;;;;;;;0.10;0.10;;;;;;;;;;7379609;19;20619;-69
2023/01/28 08:50:49;;;;;;;0.10;0.10;;;;;;;;;;7375441;19;20709;-68
2023/01/28 08:53:22;;;;;;;0.10;0.10;;;;;;;;;;7376742;19;20726;-68
2023/01/28 08:55:51;;;;;;;0.10;0.10;;;;;;;;;;7378973;19;20644;-68
2023/01/28 08:58:22;;;;;;;0.10;0.10;;;;;;;;;;7378943;19;20689;-68
2023/01/28 09:00:52;;;;;;;0.10;0.10;;;;;;;;;;7375661;19;20734;-68
2023/01/28 09:03:21;;;;;;;0.10;0.10;;;;;;;;;;7380359;19;20625;-68
2023/01/28 09:05:51;;;;;;;0.10;0.10;;;;;;;;;;7378780;19;20599;-68
2023/01/28 09:08:19;;;;;;;0.10;0.10;;;;;;;;;;7379693;19;20637;-68
2023/01/28 09:10:48;;;;;;;0.10;0.10;;;;;;;;;;7378251;19;20611;-68
2023/01/28 09:13:18;;;;;;;0.10;0.10;;;;;;;;;;7378461;19;20646;-68
2023/01/28 09:15:50;;;;;;;0.10;0.10;;;;;;;;;;7379357;19;20710;-68
2023/01/28 09:18:19;;;;;;;0.10;0.10;;;;;;;;;;7379114;19;20603;-69
2023/01/28 09:20:48;;;;;;;0.10;0.10;;;;;;;;;;7378453;19;20675;-68
2023/01/28 09:23:17;;;;;;;0.10;0.10;;;;;;;;;;7379102;19;20621;-68
2023/01/28 09:25:45;;;;;;;0.10;0.10;;;;;;;;;;7378109;19;20627;-65
2023/01/28 09:28:14;;;;;;;0.10;0.10;;;;;;;;;;7376252;19;20615;-66
2023/01/28 09:30:43;;;;;;;0.10;0.10;;;;;;;;;;7376449;19;20698;-66
2023/01/28 09:33:15;;;;;;;0.10;0.10;;;;;;;;;;7378224;19;20607;-66
2023/01/28 09:35:44;;;;;;;0.10;0.10;;;;;;;;;;7377625;19;20674;-66
2023/01/28 09:38:14;;;;;;;0.10;0.10;;;;;;;;;;7378283;19;21320;-66
2023/01/28 09:40:45;;;;;;;0.10;0.10;;;;;;;;;;7377363;19;20747;-66
2023/01/28 09:43:32;;;;;;;0.10;0.10;;;;;;;;;;7379681;19;20722;-67
2023/01/28 09:46:02;;;;;;;0.10;0.10;;;;;;;;;;7379737;19;20682;-66
2023/01/28 09:48:37;;;;;;;0.10;0.10;;;;;;;;;;7377367;19;20733;-67
2023/01/28 09:51:09;;;;;;;0.10;0.10;;;;;;;;;;7376228;19;20618;-67
2023/01/28 09:53:41;;;;;;;0.10;0.10;;;;;;;;;;7377719;19;20647;-67
2023/01/28 09:56:15;;;;;;;0.10;0.10;;;;;;;;;;7376416;19;20603;-67
2023/01/28 09:58:44;;;;;;;0.10;0.10;;;;;;;;;;7376741;19;20724;-69
2023/01/28 10:01:26;;;;;;;0.10;0.10;;;;;;;;;;7376234;19;20701;-68
2023/01/28 10:04:03;;;;;;;0.10;0.10;;;;;;;;;;7374813;19;20611;-68
2023/01/28 10:06:37;;;;;;;0.10;0.10;;;;;;;;;;7374366;19;20709;-67
2023/01/28 10:09:30;;;;;;;0.10;0.10;;;;;;;;;;7376731;19;20611;-68
2023/01/28 10:12:06;;;;;;;0.10;0.10;;;;;;;;;;7374690;19;20630;-67
2023/01/28 10:14:42;;;;;;;0.10;0.10;;;;;;;;;;7374205;19;20626;-67
2023/01/28 10:17:14;;;;;;;0.10;0.10;;;;;;;;;;7377118;19;20682;-67
2023/01/28 10:19:49;;;;;;;0.10;0.10;;;;;;;;;;7376963;19;20689;-68
2023/01/28 10:22:20;;;;;;;0.10;0.10;;;;;;;;;;7376267;19;20606;-67
2023/01/28 10:24:51;;;;;;;0.10;0.10;;;;;;;;;;7378756;19;20607;-67
2023/01/28 10:27:22;;;;;;;0.10;0.10;;;;;;;;;;7376754;19;20679;-67
2023/01/28 10:29:52;;;;;;;0.10;0.10;;;;;;;;;;7376038;19;20742;-68
2023/01/28 10:32:25;;;;;;;0.10;0.10;;;;;;;;;;7383718;19;20748;-68
2023/01/28 10:34:58;;;;;;;0.17;0.17;;;;;;;;;;7382667;19;20682;-67
2023/01/28 10:37:28;;;;;;;0.10;0.10;;;;;;;;;;7382812;19;20626;-68
2023/01/28 10:39:59;;;;;;;0.10;0.10;;;;;;;;;;7380494;19;20662;-67
2023/01/28 10:42:29;;;;;;;0.10;0.10;;;;;;;;;;7381713;19;20718;-67
2023/01/28 10:45:00;;;;;;;0.10;0.10;;;;;;;;;;7381071;19;20626;-68
2023/01/28 10:47:31;;;;;;;0.10;0.10;;;;;;;;;;7383067;19;20797;-68
2023/01/28 10:50:03;;;;;;;0.10;0.10;;;;;;;;;;7380484;19;20793;-68
2023/01/28 10:52:33;;;;;;;0.10;0.10;;;;;;;;;;7382562;19;20737;-67
2023/01/28 10:55:02;;;;;;;0.10;0.10;;;;;;;;;;7383130;19;20686;-68
2023/01/28 10:57:31;;;;;;;0.10;0.10;;;;;;;;;;7384072;19;20591;-67
2023/01/28 11:00:11;;;;;;;0.10;0.10;;;;;;;;;;7382218;19;20622;-67
2023/01/28 11:02:40;;;;;;;0.10;0.10;;;;;;;;;;7384406;19;20591;-68
2023/01/28 11:05:19;;;;;;;0.10;0.10;;;;;;;;;;7383717;19;20729;-67
2023/01/28 11:07:49;;;;;;;0.10;0.10;;;;;;;;;;7384734;19;20575;-68
2023/01/28 11:10:26;;;;;;;0.10;0.10;;;;;;;;;;7379780;19;20708;-67
2023/01/28 11:12:59;;;;;;;0.10;0.10;;;;;;;;;;7384397;19;20729;-68
2023/01/28 11:15:28;;;;;;;0.10;0.10;;;;;;;;;;7384255;19;21259;-68
2023/01/28 11:17:59;;;;;;;0.10;0.10;;;;;;;;;;7382401;19;20653;-67
2023/01/28 11:20:32;;;;;;;0.10;0.10;;;;;;;;;;7381524;19;20618;-67
2023/01/28 11:23:01;;;;;;;0.10;0.10;;;;;;;;;;7384074;19;20651;-67
2023/01/28 11:25:32;;;;;;;0.17;0.17;;;;;;;;;;7382048;19;20610;-68
2023/01/28 11:28:01;;;;;;;0.10;0.10;;;;;;;;;;7381963;19;20627;-67
2023/01/28 11:30:32;;;;;;;0.10;0.10;;;;;;;;;;7382461;19;20627;-68
2023/01/28 11:33:02;;;;;;;0.20;0.20;;;;;;;;;;7382038;19;20717;-68
2023/01/28 11:35:34;;;;;;;0.10;0.10;;;;;;;;;;7381799;19;20758;-68
2023/01/28 11:38:03;;;;;;;0.10;0.10;;;;;;;;;;7381366;19;20679;-67
2023/01/28 11:40:32;;;;;;;0.10;0.10;;;;;;;;;;7382064;19;20669;-67
2023/01/28 11:43:01;;;;;;;0.10;0.10;;;;;;;;;;7378750;19;20626;-67
2023/01/28 11:45:36;;;;;;;0.10;0.10;;;;;;;;;;7381977;19;20619;-66
2023/01/28 11:48:16;;;;;;;0.10;0.10;;;;;;;;;;7383526;19;20618;-65
2023/01/28 11:50:51;;;;;;;0.10;0.10;;;;;;;;;;7379464;19;20763;-66
2023/01/28 11:53:27;;;;;;;0.10;0.10;;;;;;;;;;7382258;19;20720;-66
2023/01/28 11:56:03;;;;;;;0.10;0.10;;;;;;;;;;7382842;19;20717;-66
2023/01/28 11:58:38;;;;;;;0.10;0.10;;;;;;;;;;7380755;19;20638;-66
2023/01/28 12:01:11;;;;;;;0.10;0.10;;;;;;;;;;7379516;19;21411;-66
2023/01/28 12:03:54;;;;;;;0.10;0.10;;;;;;;;;;7382488;19;20713;-65
2023/01/28 12:06:30;;;;;;;0.10;0.10;;;;;;;;;;7380645;19;20623;-66
2023/01/28 12:09:08;;;;;;;0.10;0.10;;;;;;;;;;7382865;19;20594;-67
2023/01/28 12:14:27;;;;;;;0.10;0.10;;;;;;;;;;7380553;19;20596;-66
2023/01/28 12:17:07;;;;;;;0.10;0.10;;;;;;;;;;7382397;19;20607;-66
2023/01/28 12:19:44;;;;;;;0.10;0.10;;;;;;;;;;7381508;19;20626;-66
2023/01/28 12:22:24;;;;;;;0.10;0.10;;;;;;;;;;7379932;19;20598;-65
2023/01/28 12:25:00;;;;;;;0.10;0.10;;;;;;;;;;7381995;19;20738;-66
2023/01/28 12:27:35;;;;;;;0.10;0.10;;;;;;;;;;7378827;19;20828;-66
2023/01/28 12:30:08;;;;;;;0.10;0.10;;;;;;;;;;7380233;19;20622;-65
2023/01/28 12:32:43;;;;;;;0.10;0.10;;;;;;;;;;7378989;19;20626;-66
2023/01/28 12:35:31;;;;;;;0.10;0.10;;;;;;;;;;7378826;19;20729;-66
2023/01/28 12:38:10;;;;;;;0.10;0.10;;;;;;;;;;7379805;19;20614;-66
2023/01/28 12:40:47;;;;;;;0.10;0.10;;;;;;;;;;7376866;19;20997;-66
2023/01/28 12:43:18;;;;;;;0.10;0.10;;;;;;;;;;7378601;19;20707;-66
2023/01/28 12:45:48;;;;;;;0.10;0.10;;;;;;;;;;7378925;19;20725;-66
2023/01/28 12:48:18;;;;;;;0.10;0.10;;;;;;;;;;7377926;19;20619;-66
2023/01/28 12:50:50;;;;;;;0.10;0.10;;;;;;;;;;7377671;19;20708;-66
2023/01/28 12:53:25;;;;;;;0.10;0.10;;;;;;;;;;7376285;19;20673;-66
2023/01/28 12:55:57;;;;;;;0.10;0.10;;;;;;;;;;7379029;19;20749;-66
2023/01/28 12:58:30;;;;;;;0.10;0.10;;;;;;;;;;7379783;19;20599;-66
2023/01/28 13:01:03;;;;;;;0.10;0.10;;;;;;;;;;7378477;19;20615;-66
2023/01/28 13:03:38;;;;;;;0.10;0.10;;;;;;;;;;7377016;19;20777;-66
2023/01/28 13:06:11;;;;;;;0.10;0.10;;;;;;;;;;7377454;19;20645;-66
2023/01/28 13:08:43;;;;;;;0.10;0.10;;;;;;;;;;7378796;19;20630;-66
2023/01/28 13:11:15;;;;;;;0.10;0.10;;;;;;;;;;7376650;19;20739;-66
2023/01/28 13:13:45;;;;;;;0.10;0.10;;;;;;;;;;7379826;19;20607;-66
2023/01/28 13:16:14;;;;;;;0.10;0.10;;;;;;;;;;7376481;19;20632;-66
2023/01/28 13:18:47;;;;;;;0.10;0.10;;;;;;;;;;7378314;19;20639;-66
2023/01/28 13:21:17;;;;;;;0.10;0.10;;;;;;;;;;7379203;19;20603;-66
2023/01/28 13:23:50;;;;;;;0.10;0.10;;;;;;;;;;7379882;19;20599;-66
2023/01/28 13:26:33;;;;;;;0.10;0.10;;;;;;;;;;7377795;19;20645;-66
2023/01/28 13:29:21;;;;;;;0.10;0.10;;;;;;;;;;7379974;19;20623;-66
2023/01/28 13:31:50;;;;;;;0.10;0.10;;;;;;;;;;7378670;19;20753;-66
2023/01/28 13:34:35;;;;;;;0.10;0.10;;;;;;;;;;7375987;19;20627;-66
2023/01/28 13:37:10;;;;;;;0.10;0.10;;;;;;;;;;7377620;19;20611;-66
2023/01/28 13:39:42;;;;;;;0.10;0.10;;;;;;;;;;7377124;19;20800;-66
2023/01/28 13:42:12;;;;;;;0.10;0.10;;;;;;;;;;7376144;19;20627;-65
2023/01/28 13:44:41;;;;;;;0.10;0.10;;;;;;;;;;7379080;19;20698;-67
2023/01/28 13:47:18;;;;;;;0.10;0.10;;;;;;;;;;7378480;19;20738;-66
2023/01/28 13:49:50;;;;;;;0.10;0.10;;;;;;;;;;7376376;19;20735;-66
2023/01/28 13:52:20;;;;;;;0.10;0.10;;;;;;;;;;7376791;19;21354;-67
2023/01/28 13:54:54;;;;;;;0.10;0.10;;;;;;;;;;7376806;19;20745;-66
2023/01/28 13:57:46;;;;;;;0.10;0.10;;;;;;;;;;7376677;19;20681;-66
2023/01/28 14:00:20;;;;;;;0.10;0.10;;;;;;;;;;7375850;19;20668;-66
2023/01/28 14:03:04;;;;;;;0.10;0.10;;;;;;;;;;7377724;19;20740;-66
2023/01/28 14:05:48;;;;;;;0.10;0.10;;;;;;;;;;7378499;19;20757;-66
2023/01/28 14:08:40;;;;;;;0.10;0.10;;;;;;;;;;7386027;19;20649;-66
2023/01/28 14:11:27;;;;;;;0.10;0.10;;;;;;;;;;7380632;19;20654;-65
2023/01/28 14:14:08;;;;;;;0.00;0.00;;;;;;;;;;7388717;19;20675;-66
2023/01/28 14:16:43;;;;;;;0.10;0.10;;;;;;;;;;7384482;19;20954;-66
2023/01/28 14:19:14;;;;;;;0.10;0.10;;;;;;;;;;7384909;19;20697;-66
2023/01/28 14:21:43;;;;;;;0.10;0.10;;;;;;;;;;7385511;19;20629;-66
2023/01/28 14:24:16;;;;;;;0.10;0.10;;;;;;;;;;7382643;19;20631;-66
2023/01/28 14:26:54;;;;;;;0.10;0.10;;;;;;;;;;7384565;19;21214;-66
2023/01/28 14:29:28;;;;;;;0.10;0.10;;;;;;;;;;7381042;19;20727;-66
2023/01/28 14:31:57;;;;;;;0.10;0.10;;;;;;;;;;7382307;19;20765;-66
2023/01/28 14:34:28;;;;;;;0.10;0.10;;;;;;;;;;7383066;19;20655;-66
2023/01/28 14:36:58;;;;;;;0.10;0.10;;;;;;;;;;7384427;19;20611;-66
2023/01/28 14:39:28;;;;;;;0.10;0.10;;;;;;;;;;7382138;19;20780;-65
2023/01/28 14:42:01;;;;;;;0.10;0.10;;;;;;;;;;7382765;19;20729;-67
2023/01/28 14:44:32;;;;;;;0.10;0.10;;;;;;;;;;7383183;19;20603;-66
2023/01/28 14:47:13;;;;;;;0.10;0.10;;;;;;;;;;7384933;19;21329;-66
2023/01/28 14:49:48;;;;;;;0.10;0.10;;;;;;;;;;7383634;19;20695;-66
2023/01/28 14:52:28;;;;;;;0.10;0.10;;;;;;;;;;7379592;19;20638;-67
2023/01/28 14:55:02;;;;;;;0.10;0.10;;;;;;;;;;7383900;19;20680;-66
2023/01/28 14:57:41;;;;;;;0.10;0.10;;;;;;;;;;7383214;19;20729;-66
2023/01/28 15:00:20;;;;;;;0.10;0.10;;;;;;;;;;7380166;19;20646;-65
2023/01/28 15:02:49;;;;;;;0.10;0.10;;;;;;;;;;7383933;19;20626;-66
2023/01/28 15:05:19;;;;;;;0.10;0.10;;;;;;;;;;7381378;19;20631;-66
2023/01/28 15:07:49;;;;;;;0.10;0.10;;;;;;;;;;7383125;19;20675;-66
2023/01/28 15:10:19;;;;;;;0.10;0.10;;;;;;;;;;7380730;19;20714;-66
2023/01/28 15:12:52;;;;;;;0.10;0.10;;;;;;;;;;7382590;19;20670;-66
2023/01/28 15:15:23;;;;;;;0.10;0.10;;;;;;;;;;7382566;19;20724;-66
2023/01/28 15:17:52;;;;;;;0.10;0.10;;;;;;;;;;7384685;19;20630;-66
2023/01/28 15:20:22;;;;;;;0.10;0.10;;;;;;;;;;7379194;19;20670;-66
2023/01/28 15:22:52;;;;;;;0.10;0.10;;;;;;;;;;7383920;19;20748;-66
2023/01/28 15:25:22;;;;;;;0.10;0.10;;;;;;;;;;7383375;19;20663;-67
2023/01/28 15:27:55;;;;;;;0.10;0.10;;;;;;;;;;7382593;19;20637;-67
2023/01/28 15:30:25;;;;;;;0.10;0.10;;;;;;;;;;7381874;19;20725;-66
2023/01/28 15:33:01;;;;;;;0.10;0.10;;;;;;;;;;7381908;19;20685;-66
2023/01/28 15:35:30;;;;;;;0.10;0.10;;;;;;;;;;7381161;19;20630;-66
2023/01/28 15:37:59;;;;;;;0.10;0.10;;;;;;;;;;7384011;19;20611;-66
2023/01/28 15:40:28;;;;;;;0.10;0.10;;;;;;;;;;7381125;19;20623;-66
2023/01/28 15:43:00;;;;;;;0.10;0.10;;;;;;;;;;7384625;19;20619;-66
2023/01/28 15:45:29;;;;;;;0.10;0.10;;;;;;;;;;7383094;19;20958;-67